Time;durP1;ratioP1;P1;durP2;ratioP2;P2;SDS_P1;SDS_P2;PMS_P1;PMS_P2;Temp;Humidity;BMP_temperature;BMP_pressure;BME280_temperature;BME280_humidity;BME280_pressure;Samples;Min_cycle;Max_cycle;Signal;HPM_P1;HPM_P2
2023/01/03 00:00:07;;;;;;;;;;;;;;;9.82;66.64;98978.63;4984249;28;20299;-75
2023/01/03 00:02:35;;;;;;;;;;;;;;;9.77;66.25;98993.03;4991263;28;19926;-76
2023/01/03 00:05:05;;;;;;;;;;;;;;;9.69;66.79;98988.19;4992935;28;20339;-76
2023/01/03 00:07:34;;;;;;;;;;;;;;;9.71;66.68;99002.31;4992269;28;19936;-77
2023/01/03 00:10:02;;;;;;;;;;;;;;;9.73;66.37;99000.09;4992774;28;19926;-76
2023/01/03 00:12:31;;;;;;;;;;;;;;;9.63;66.81;99002.88;5008366;28;19933;-77
2023/01/03 00:14:59;;;;;;;;;;;;;;;9.69;66.63;98997.16;4986133;28;19926;-76
2023/01/03 00:17:29;;;;;;;;;;;;;;;9.61;66.62;99002.34;4988496;28;19977;-76
2023/01/03 00:19:56;;;;;;;;;;;;;;;9.65;66.85;99003.41;4991875;28;19930;-77
2023/01/03 00:22:25;;;;;;;;;;;;;;;9.59;67.09;98999.09;4991892;28;19925;-76
2023/01/03 00:24:53;;;;;;;;;;;;;;;9.50;67.22;98973.63;4990673;28;20305;-77
2023/01/03 00:27:21;;;;;;;;;;;;;;;9.58;66.96;98968.44;4990470;28;19925;-75
2023/01/03 00:29:50;;;;;;;;;;;;;;;9.60;66.90;98962.75;4980965;28;20380;-76
2023/01/03 00:32:18;;;;;;;;;;;;;;;9.56;67.46;98954.34;4983596;28;19932;-77
2023/01/03 00:34:46;;;;;;;;;;;;;;;9.52;67.22;98941.59;4992220;28;19930;-76
2023/01/03 00:37:14;;;;;;;;;;;;;;;9.52;67.38;98955.19;4992344;28;19937;-77
2023/01/03 00:39:42;;;;;;;;;;;;;;;9.55;67.21;98966.28;4991019;28;20013;-77
2023/01/03 00:42:11;;;;;;;;;;;;;;;9.57;67.39;98971.44;4995397;28;20399;-76
2023/01/03 00:44:40;;;;;;;;;;;;;;;9.48;67.75;98982.06;4998069;28;19929;-77
2023/01/03 00:47:09;;;;;;;;;;;;;;;9.52;67.77;98987.72;4990227;28;19925;-77
2023/01/03 00:49:40;;;;;;;;;;;;;;;9.42;67.96;98991.28;4995148;28;20008;-77
2023/01/03 00:52:08;;;;;;;;;;;;;;;9.50;67.94;98995.34;4995731;28;19980;-77
2023/01/03 00:54:37;;;;;;;;;;;;;;;9.32;68.42;98989.44;5013132;28;19925;-75
2023/01/03 00:57:05;;;;;;;;;;;;;;;9.38;68.43;99004.59;5009214;28;19930;-77
2023/01/03 00:59:33;;;;;;;;;;;;;;;9.32;68.63;99000.28;5011002;28;19925;-77
2023/01/03 01:02:01;;;;;;;;;;;;;;;9.25;69.03;98999.75;4988789;28;19925;-76
2023/01/03 01:04:31;;;;;;;;;;;;;;;9.23;69.14;99007.38;4995335;28;19925;-77
2023/01/03 01:07:00;;;;;;;;;;;;;;;9.22;69.35;99011.16;4994633;28;19972;-77
2023/01/03 01:09:30;;;;;;;;;;;;;;;9.23;69.21;99007.38;4997194;28;19933;-77
2023/01/03 01:12:01;;;;;;;;;;;;;;;9.19;69.61;99009.00;4992978;28;19926;-77
2023/01/03 01:14:32;;;;;;;;;;;;;;;9.19;69.70;99017.13;4994659;28;20291;-77
2023/01/03 01:17:00;;;;;;;;;;;;;;;9.15;69.71;99014.16;4986573;28;20009;-78
2023/01/03 01:19:32;;;;;;;;;;;;;;;9.17;69.75;99008.47;5010638;28;19926;-77
2023/01/03 01:22:00;;;;;;;;;;;;;;;9.16;69.47;99012.25;4993582;28;19926;-78
2023/01/03 01:24:28;;;;;;;;;;;;;;;9.10;70.00;99018.78;4995165;28;19930;-77
2023/01/03 01:26:56;;;;;;;;;;;;;;;9.11;69.75;99026.66;4995150;28;19930;-77
2023/01/03 01:29:24;;;;;;;;;;;;;;;9.11;69.96;99031.25;4995629;28;19988;-77
2023/01/03 01:31:54;;;;;;;;;;;;;;;9.02;70.30;99030.19;4990277;28;19961;-78
2023/01/03 01:34:23;;;;;;;;;;;;;;;9.08;70.38;99034.50;4994731;28;20368;-78
2023/01/03 01:36:52;;;;;;;;;;;;;;;9.12;70.04;99041.00;4993325;28;19925;-75
2023/01/03 01:39:21;;;;;;;;;;;;;;;9.09;70.08;99044.25;4996401;28;19926;-74
2023/01/03 01:44:43;;;;;;;;;;;;;;;9.00;70.77;99045.88;4990471;28;19926;-75
2023/01/03 01:47:11;;;;;;;;;;;;;;;8.95;70.72;99041.31;4991096;28;19925;-75
2023/01/03 01:49:39;;;;;;;;;;;;;;;9.10;70.12;99038.56;4993258;28;19926;-75
2023/01/03 01:52:11;;;;;;;;;;;;;;;9.08;70.00;99037.22;4993382;28;19926;-75
2023/01/03 01:54:40;;;;;;;;;;;;;;;8.99;70.75;99036.13;4992391;28;19926;-74
2023/01/03 01:57:09;;;;;;;;;;;;;;;8.99;70.51;99039.66;4998539;28;20017;-74
2023/01/03 01:59:37;;;;;;;;;;;;;;;9.02;70.58;99046.44;5001571;28;20001;-74
2023/01/03 02:02:04;;;;;;;;;;;;;;;8.99;70.55;99049.69;4988571;28;20281;-75
2023/01/03 02:04:34;;;;;;;;;;;;;;;8.86;71.18;99046.47;4994218;28;19926;-75
2023/01/03 02:07:02;;;;;;;;;;;;;;;8.95;70.78;99051.31;4993794;28;20029;-75
2023/01/03 02:09:34;;;;;;;;;;;;;;;9.02;70.80;99047.25;4994449;28;19932;-75
2023/01/03 02:14:56;;;;;;;;;;;;;;;9.02;70.65;99051.88;5000812;28;20038;-75
2023/01/03 02:17:26;;;;;;;;;;;;;;;8.90;70.92;99047.53;4984376;28;19936;-75
2023/01/03 02:20:10;;;;;;;;;;;;;;;8.99;70.54;99050.50;4997638;28;20379;-75
2023/01/03 02:22:59;;;;;;;;;;;;;;;8.95;70.78;99054.03;4990137;28;19926;-75
2023/01/03 02:25:39;;;;;;;;;;;;;;;8.94;70.84;99055.91;4992826;28;20359;-75
2023/01/03 02:28:34;;;;;;;;;;;;;;;8.93;70.51;99057.81;4999576;28;19940;-75
2023/01/03 02:31:07;;;;;;;;;;;;;;;9.04;69.97;99049.69;4957795;28;20009;-75
2023/01/03 02:33:37;;;;;;;;;;;;;;;8.98;70.16;99053.50;4993762;28;19926;-75
2023/01/03 02:36:05;;;;;;;;;;;;;;;8.88;70.40;99043.47;4993267;28;20279;-75
2023/01/03 02:38:37;;;;;;;;;;;;;;;8.91;70.49;99042.94;4994237;28;19925;-75
2023/01/03 02:41:06;;;;;;;;;;;;;;;8.79;70.88;99039.66;4993552;28;19933;-75
2023/01/03 02:43:37;;;;;;;;;;;;;;;8.78;71.00;99036.16;4993058;28;20380;-74
2023/01/03 02:46:07;;;;;;;;;;;;;;;8.71;71.05;99051.88;4987427;28;19930;-75
2023/01/03 02:48:37;;;;;;;;;;;;;;;8.72;71.06;99061.63;4991730;28;19976;-74
2023/01/03 02:51:10;;;;;;;;;;;;;;;8.75;70.82;99061.09;4992865;28;19949;-75
2023/01/03 02:53:38;;;;;;;;;;;;;;;8.69;71.21;99067.59;5008805;28;19930;-75
2023/01/03 02:56:07;;;;;;;;;;;;;;;8.71;71.09;99070.84;4993236;28;19926;-75
2023/01/03 02:58:36;;;;;;;;;;;;;;;8.72;71.17;99077.06;4993730;28;19925;-75
2023/01/03 03:01:04;;;;;;;;;;;;;;;8.63;71.38;99080.34;4985699;28;19930;-75
2023/01/03 03:03:36;;;;;;;;;;;;;;;8.67;71.13;99075.16;4992274;28;19930;-74
2023/01/03 03:06:06;;;;;;;;;;;;;;;8.57;71.58;99073.25;4991751;28;19988;-75
2023/01/03 03:08:34;;;;;;;;;;;;;;;8.61;71.40;99077.06;4991001;28;19930;-75
2023/01/03 03:13:53;;;;;;;;;;;;;;;8.56;71.60;99074.34;4979614;28;19933;-75
2023/01/03 03:16:46;;;;;;;;;;;;;;;8.55;71.37;99077.34;4981225;28;19926;-74
2023/01/03 03:25:19;;;;;;;;;;;;;;;8.38;72.17;99077.59;4988258;28;19933;-75
2023/01/03 03:30:34;;;;;;;;;;;;;;;8.39;72.15;99079.22;4985753;28;19926;-75
2023/01/03 03:33:05;;;;;;;;;;;;;;;8.39;72.50;99079.22;4992270;28;19926;-75
2023/01/03 03:35:35;;;;;;;;;;;;;;;8.45;72.09;99071.91;4992489;28;19933;-74
2023/01/03 03:38:03;;;;;;;;;;;;;;;8.38;72.13;99074.88;4992245;28;19976;-75
2023/01/03 03:46:05;;;;;;;;;;;;;;;8.51;71.78;99076.25;4982390;28;20379;-75
2023/01/03 03:52:11;;;;;;;;;;;;;;;8.47;71.83;99081.41;4990400;28;19992;-75
2023/01/03 03:54:39;;;;;;;;;;;;;;;8.42;71.92;99083.28;4993283;28;19926;-75
2023/01/03 03:57:09;;;;;;;;;;;;;;;8.46;71.83;99081.66;4990926;28;19926;-75
2023/01/03 03:59:37;;;;;;;;;;;;;;;8.40;71.93;99078.13;4991703;28;19925;-75
2023/01/03 04:02:05;;;;;;;;;;;;;;;8.38;71.95;99083.81;4987247;28;19933;-75
2023/01/03 04:04:35;;;;;;;;;;;;;;;8.38;72.18;99093.84;4992042;28;20346;-74
2023/01/03 04:07:03;;;;;;;;;;;;;;;8.32;71.85;99090.28;5005729;28;19925;-75
2023/01/03 04:09:33;;;;;;;;;;;;;;;8.19;72.63;99095.38;4992516;28;20338;-75
2023/01/03 04:12:01;;;;;;;;;;;;;;;8.25;72.52;99094.31;4991988;28;19980;-75
2023/01/03 04:14:29;;;;;;;;;;;;;;;8.14;72.67;99091.56;4992494;28;19933;-74
2023/01/03 04:16:57;;;;;;;;;;;;;;;8.25;72.46;99094.31;4983458;28;19930;-75
2023/01/03 04:19:25;;;;;;;;;;;;;;;8.14;72.76;99101.56;4992449;28;19925;-74
2023/01/03 04:21:52;;;;;;;;;;;;;;;8.18;72.58;99110.00;4990474;28;19933;-74
2023/01/03 04:24:21;;;;;;;;;;;;;;;8.20;72.74;99113.22;4991110;28;19926;-74
2023/01/03 04:26:50;;;;;;;;;;;;;;;8.14;72.71;99115.09;4989871;28;19969;-74
2023/01/03 04:29:43;;;;;;;;;;;;;;;8.17;72.69;99108.38;4991497;28;19933;-74
2023/01/03 04:32:11;;;;;;;;;;;;;;;8.16;72.79;99112.97;4980422;28;20373;-74
2023/01/03 04:34:39;;;;;;;;;;;;;;;8.17;72.67;99109.19;4989924;28;19949;-74
2023/01/03 04:37:08;;;;;;;;;;;;;;;8.15;72.91;99114.06;4991405;28;19929;-74
2023/01/03 04:39:36;;;;;;;;;;;;;;;8.09;73.06;99110.50;4991475;28;19965;-74
2023/01/03 04:44:00;;;;;;;;;;;;;;;8.06;73.00;99113.75;4991672;28;19940;-74
2023/01/03 04:44:53;;;;;;;;;;;;;;;8.02;73.31;99111.81;4991420;28;19930;-75
2023/01/03 04:47:21;;;;;;;;;;;;;;;7.98;73.47;99110.72;4999306;28;19926;-74
2023/01/03 04:49:50;;;;;;;;;;;;;;;8.11;72.79;99104.84;4990424;28;19948;-74
2023/01/03 04:52:42;;;;;;;;;;;;;;;8.02;73.02;99106.41;4991424;28;19985;-74
2023/01/03 04:55:11;;;;;;;;;;;;;;;7.95;73.15;99105.84;4991407;28;19934;-74
2023/01/03 04:58:06;;;;;;;;;;;;;;;7.96;73.15;99108.28;4990869;28;20462;-74
2023/01/03 05:00:34;;;;;;;;;;;;;;;7.84;73.34;99116.63;4985666;28;19926;-73
2023/01/03 05:03:02;;;;;;;;;;;;;;;7.87;73.30;99116.09;4990745;28;19929;-73
2023/01/03 05:05:30;;;;;;;;;;;;;;;7.78;73.64;99111.47;4997683;28;20391;-73
2023/01/03 05:07:57;;;;;;;;;;;;;;;7.81;73.53;99111.75;4989406;28;20372;-73
2023/01/03 05:10:25;;;;;;;;;;;;;;;7.67;73.97;99116.03;4991812;28;19969;-73
2023/01/03 05:13:02;;;;;;;;;;;;;;;7.75;73.77;99115.50;4989043;28;19926;-73
2023/01/03 05:15:34;;;;;;;;;;;;;;;7.68;73.82;99116.84;4984281;28;19926;-73
2023/01/03 05:18:02;;;;;;;;;;;;;;;7.65;73.87;99115.44;4990688;28;19926;-73
2023/01/03 05:26:03;;;;;;;;;;;;;;;7.73;73.37;99123.09;4991015;28;19932;-73
2023/01/03 05:28:34;;;;;;;;;;;;;;;7.65;73.61;99117.34;4997500;28;20299;-73
2023/01/03 05:31:03;;;;;;;;;;;;;;;7.73;73.25;99123.09;4989842;28;19930;-73
2023/01/03 05:33:34;;;;;;;;;;;;;;;7.66;73.77;99130.59;4994128;28;19972;-73
2023/01/03 05:36:02;;;;;;;;;;;;;;;7.70;73.21;99137.13;5001128;28;20393;-73
2023/01/03 05:38:30;;;;;;;;;;;;;;;7.68;73.33;99136.56;4994796;28;19933;-73
2023/01/03 05:44:10;;;;;;;;;;;;;;;7.61;73.56;99144.91;4994651;28;19953;-73
2023/01/03 05:46:39;;;;;;;;;;;;;;;7.51;74.13;99150.28;4988110;28;19984;-73
2023/01/03 05:49:08;;;;;;;;;;;;;;;7.57;73.60;99157.34;4994567;28;19932;-73
2023/01/03 05:51:35;;;;;;;;;;;;;;;7.46;74.43;99158.34;5001512;28;19926;-73
2023/01/03 05:54:04;;;;;;;;;;;;;;;7.47;74.46;99159.97;4993030;28;19936;-73
2023/01/03 05:56:32;;;;;;;;;;;;;;;7.31;74.88;99153.66;4994546;28;19925;-73
2023/01/03 05:59:00;;;;;;;;;;;;;;;7.34;74.88;99155.81;4990838;28;19926;-73
2023/01/03 06:01:28;;;;;;;;;;;;;;;7.45;74.41;99158.59;4987658;28;19933;-73
2023/01/03 06:03:58;;;;;;;;;;;;;;;7.28;75.05;99156.03;4996696;28;19925;-73
2023/01/03 06:06:26;;;;;;;;;;;;;;;7.28;75.13;99154.16;4994707;28;19926;-73
2023/01/03 06:08:54;;;;;;;;;;;;;;;7.31;75.51;99155.53;4992901;28;19926;-73
2023/01/03 06:11:24;;;;;;;;;;;;;;;7.29;74.78;99153.06;4993140;28;19925;-73
2023/01/03 06:13:52;;;;;;;;;;;;;;;7.20;75.33;99162.75;4992702;28;19930;-73
2023/01/03 06:19:09;;;;;;;;;;;;;;;7.36;74.70;99158.28;5009052;28;19925;-73
2023/01/03 06:21:37;;;;;;;;;;;;;;;7.29;74.85;99161.19;4993887;28;20032;-73
2023/01/03 06:24:05;;;;;;;;;;;;;;;7.30;74.99;99165.53;4994208;28;20393;-73
2023/01/03 06:26:34;;;;;;;;;;;;;;;7.16;75.41;99167.03;4993544;28;20305;-73
2023/01/03 06:29:05;;;;;;;;;;;;;;;7.19;75.45;99163.84;4999299;28;19975;-73
2023/01/03 06:31:33;;;;;;;;;;;;;;;7.24;75.15;99171.94;4986564;28;19926;-73
2023/01/03 06:34:01;;;;;;;;;;;;;;;7.24;75.42;99171.13;4995766;28;19933;-73
2023/01/03 06:36:33;;;;;;;;;;;;;;;7.23;75.51;99170.34;4992976;28;19925;-73
2023/01/03 06:39:01;;;;;;;;;;;;;;;7.21;75.35;99166.28;4991607;28;20255;-73
2023/01/03 06:41:29;;;;;;;;;;;;;;;7.22;75.57;99170.59;5007613;28;19926;-63
2023/01/03 06:43:57;;;;;;;;;;;;;;;7.17;75.70;99168.66;4990591;28;19937;-63
2023/01/03 06:54:46;;;;;;;;;;;;;;;7.24;75.07;99185.47;5007077;28;19965;-62
2023/01/03 06:57:14;;;;;;;;;;;;;;;7.17;75.34;99193.00;4991459;28;19933;-62
2023/01/03 06:59:58;;;;;;;;;;;;;;;7.01;75.88;99193.94;4993312;28;19925;-62
2023/01/03 07:02:26;;;;;;;;;;;;;;;7.12;75.65;99189.44;4987849;28;19929;-62
2023/01/03 07:04:55;;;;;;;;;;;;;;;7.16;75.55;99201.38;4992085;28;20364;-62
2023/01/03 07:07:25;;;;;;;;;;;;;;;7.23;74.99;99201.94;4992225;28;19934;-62
2023/01/03 07:09:52;;;;;;;;;;;;;;;7.14;75.65;99211.59;4992855;28;21079;-69
2023/01/03 07:15:31;;;;;;;;;;;;;;;7.19;74.96;99228.69;4982290;28;19930;-62
2023/01/03 07:18:00;;;;;;;;;;;;;;;7.11;75.31;99218.34;5004598;28;19930;-62
2023/01/03 07:20:28;;;;;;;;;;;;;;;7.08;75.55;99216.13;4991900;28;19929;-62
2023/01/03 07:22:57;;;;;;;;;;;;;;;7.05;75.71;99216.66;4989999;28;19925;-62
2023/01/03 07:25:25;;;;;;;;;;;;;;;7.02;75.51;99217.97;4991839;28;19925;-62
2023/01/03 07:27:56;;;;;;;;;;;;;;;7.12;75.42;99228.06;4990731;28;20375;-62
2023/01/03 07:30:32;;;;;;;;;;;;;;;6.99;75.65;99218.50;4987006;28;19926;-62
2023/01/03 07:33:00;;;;;;;;;;;;;;;6.92;75.71;99225.16;4993262;28;19926;-62
2023/01/03 07:35:27;;;;;;;;;;;;;;;6.88;76.08;99226.78;4989710;28;19929;-62
2023/01/03 07:37:57;;;;;;;;;;;;;;;6.87;76.68;99225.13;5006747;28;19929;-62
2023/01/03 07:40:25;;;;;;;;;;;;;;;6.89;75.90;99229.22;4991517;28;19926;-62
2023/01/03 07:45:39;;;;;;;;;;;;;;;6.80;76.29;99239.66;4987863;28;19926;-62
2023/01/03 07:48:07;;;;;;;;;;;;;;;6.89;75.93;99242.72;4990799;28;19930;-62
2023/01/03 07:50:35;;;;;;;;;;;;;;;6.82;76.42;99248.34;4991180;28;19929;-62
2023/01/03 07:53:05;;;;;;;;;;;;;;;6.92;75.70;99241.38;4979579;28;19926;-62
2023/01/03 07:55:34;;;;;;;;;;;;;;;6.95;75.79;99247.09;4989644;28;20299;-62
2023/01/03 07:58:02;;;;;;;;;;;;;;;6.95;75.49;99249.00;4984988;28;20414;-62
2023/01/03 08:00:31;;;;;;;;;;;;;;;6.88;75.50;99256.50;4985253;28;19995;-62
2023/01/03 08:03:01;;;;;;;;;;;;;;;6.98;75.55;99256.59;4988917;28;20288;-62
2023/01/03 08:05:29;;;;;;;;;;;;;;;6.85;75.83;99251.59;4998295;28;19930;-62
2023/01/03 08:07:57;;;;;;;;;;;;;;;6.79;75.78;99256.13;4991802;28;19936;-62
2023/01/03 08:13:17;;;;;;;;;;;;;;;6.80;75.62;99247.75;4991634;28;19925;-61
2023/01/03 08:15:46;;;;;;;;;;;;;;;6.78;75.95;99260.72;4984266;28;19925;-61
2023/01/03 08:18:15;;;;;;;;;;;;;;;6.72;76.35;99260.91;4991356;28;20017;-61
2023/01/03 08:20:43;;;;;;;;;;;;;;;6.93;75.09;99256.53;4992135;28;19930;-62
2023/01/03 08:23:11;;;;;;;;;;;;;;;6.94;75.12;99266.28;4991400;28;19933;-61
2023/01/03 08:25:40;;;;;;;;;;;;;;;6.91;75.70;99269.47;4992485;28;19980;-63
2023/01/03 08:28:09;;;;;;;;;;;;;;;6.92;75.20;99271.09;4991022;28;19926;-64
2023/01/03 08:30:38;;;;;;;;;;;;;;;6.88;75.83;99270.81;4986161;28;19997;-61
2023/01/03 08:33:06;;;;;;;;;;;;;;;7.03;75.25;99265.56;4991053;28;19960;-62
2023/01/03 08:35:34;;;;;;;;;;;;;;;7.24;74.37;99269.25;4991574;28;19933;-62
2023/01/03 08:38:02;;;;;;;;;;;;;;;7.29;73.90;99265.78;4990443;28;20391;-63
2023/01/03 08:40:31;;;;;;;;;;;;;;;7.21;74.14;99272.50;4989906;28;19925;-62
2023/01/03 08:43:05;;;;;;;;;;;;;;;7.29;73.85;99280.13;4991368;28;19929;-62
2023/01/03 08:45:34;;;;;;;;;;;;;;;7.26;74.04;99280.66;4984082;28;19926;-62
2023/01/03 08:48:02;;;;;;;;;;;;;;;7.20;74.15;99276.28;4990977;28;19930;-62
2023/01/03 08:50:30;;;;;;;;;;;;;;;7.22;74.25;99284.94;4990365;28;19925;-62
2023/01/03 08:52:59;;;;;;;;;;;;;;;7.24;74.40;99281.97;4991571;28;19968;-62
2023/01/03 08:55:29;;;;;;;;;;;;;;;7.32;74.03;99276.09;4991429;28;19936;-62
2023/01/03 08:57:58;;;;;;;;;;;;;;;7.36;74.62;99285.34;4991126;28;19930;-62
2023/01/03 09:00:28;;;;;;;;;;;;;;;7.48;74.15;99288.69;4967246;28;19926;-62
2023/01/03 09:02:58;;;;;;;;;;;;;;;7.68;72.83;99296.16;4993204;28;19932;-62
2023/01/03 09:05:27;;;;;;;;;;;;;;;7.74;72.12;99297.03;4993077;28;19956;-62
2023/01/03 09:07:57;;;;;;;;;;;;;;;7.72;72.11;99304.56;4994079;28;20394;-62
2023/01/03 09:10:25;;;;;;;;;;;;;;;7.71;71.98;99305.63;4994767;28;19933;-62
2023/01/03 09:12:54;;;;;;;;;;;;;;;7.71;71.90;99306.44;4994792;28;19926;-62
2023/01/03 09:15:22;;;;;;;;;;;;;;;7.66;72.02;99308.31;4990806;28;19969;-62
2023/01/03 09:17:52;;;;;;;;;;;;;;;7.79;71.86;99313.28;4996570;28;20422;-63
2023/01/03 09:20:20;;;;;;;;;;;;;;;7.79;71.43;99314.09;4994520;28;19948;-62
2023/01/03 09:22:47;;;;;;;;;;;;;;;7.76;71.26;99314.59;4991403;28;20379;-62
2023/01/03 09:25:15;;;;;;;;;;;;;;;7.86;70.96;99309.28;4994909;28;19926;-62
2023/01/03 09:27:47;;;;;;;;;;;;;;;7.80;71.34;99313.03;4997304;28;19972;-62
2023/01/03 09:30:16;;;;;;;;;;;;;;;7.81;71.21;99319.25;4996881;28;19926;-62
2023/01/03 09:32:43;;;;;;;;;;;;;;;7.79;71.34;99314.09;5004916;28;19930;-62
2023/01/03 09:35:13;;;;;;;;;;;;;;;7.82;71.29;99324.41;4986989;28;20302;-62
2023/01/03 09:37:41;;;;;;;;;;;;;;;7.84;71.77;99322.25;4994039;28;20662;-62
2023/01/03 09:40:15;;;;;;;;;;;;;;;8.00;71.49;99319.69;4995062;28;19933;-62
2023/01/03 09:45:31;;;;;;;;;;;;;;;8.09;70.19;99328.91;4990135;28;19938;-62
2023/01/03 09:48:00;;;;;;;;;;;;;;;8.05;70.18;99328.66;4986728;28;20021;-64
2023/01/03 09:50:31;;;;;;;;;;;;;;;8.04;70.29;99331.59;4994709;28;19930;-64
2023/01/03 10:04:39;;;;;;;;;;;;;;;8.19;69.56;99312.75;4994079;28;19965;-61
2023/01/03 10:07:12;;;;;;;;;;;;;;;8.28;69.80;99311.19;5008341;28;20578;-62
2023/01/03 10:09:40;;;;;;;;;;;;;;;8.20;69.48;99314.38;4994228;28;19926;-62
2023/01/03 10:12:10;;;;;;;;;;;;;;;8.20;69.27;99314.38;4993770;28;20298;-62
2023/01/03 10:14:43;;;;;;;;;;;;;;;8.18;69.55;99316.53;4991606;28;19926;-62
2023/01/03 10:18:05;;;;;;;;;;;;;;;8.12;69.67;99314.88;4992371;28;19933;-62
2023/01/03 10:20:36;;;;;;;;;;;;;;;8.08;69.70;99311.06;4992318;28;20398;-62
2023/01/03 10:23:05;;;;;;;;;;;;;;;8.12;69.25;99312.16;4993160;28;19971;-62
2023/01/03 10:25:33;;;;;;;;;;;;;;;8.15;69.59;99314.38;4994152;28;19929;-62
2023/01/03 10:28:02;;;;;;;;;;;;;;;8.28;69.17;99313.91;4992074;28;19926;-63
2023/01/03 10:30:35;;;;;;;;;;;;;;;8.23;68.92;99313.88;4991714;28;20072;-65
2023/01/03 10:33:23;;;;;;;;;;;;;;;8.26;68.84;99312.53;4993767;28;20638;-62
2023/01/03 10:35:52;;;;;;;;;;;;;;;8.22;68.74;99311.44;4984007;28;19965;-62
2023/01/03 10:38:21;;;;;;;;;;;;;;;8.27;68.82;99304.16;4991789;28;19926;-63
2023/01/03 10:40:50;;;;;;;;;;;;;;;8.27;68.26;99311.47;4989496;28;19980;-63
2023/01/03 10:43:19;;;;;;;;;;;;;;;8.28;68.57;99311.19;5007976;28;19932;-62
2023/01/03 10:45:51;;;;;;;;;;;;;;;8.37;67.95;99306.13;5000123;28;19925;-62
2023/01/03 10:48:19;;;;;;;;;;;;;;;8.47;68.03;99298.06;4994508;28;19926;-62
2023/01/03 10:50:49;;;;;;;;;;;;;;;8.47;67.33;99292.66;4989389;28;20497;-62
2023/01/03 10:53:19;;;;;;;;;;;;;;;8.52;67.25;99294.53;4988393;28;20398;-62
2023/01/03 10:55:48;;;;;;;;;;;;;;;8.49;67.29;99289.66;4993306;28;19970;-62
2023/01/03 10:58:18;;;;;;;;;;;;;;;8.53;67.31;99291.59;4992983;28;20375;-62
2023/01/03 11:00:46;;;;;;;;;;;;;;;8.61;67.11;99287.53;4984304;28;19968;-63
2023/01/03 11:03:16;;;;;;;;;;;;;;;8.59;66.87;99279.69;4993153;28;19926;-62
2023/01/03 11:05:44;;;;;;;;;;;;;;;8.63;66.63;99274.56;4991786;28;20050;-62
2023/01/03 11:08:16;;;;;;;;;;;;;;;8.42;67.26;99278.28;4992670;28;19930;-62
2023/01/03 11:10:52;;;;;;;;;;;;;;;8.58;67.49;99271.84;4992818;28;19929;-63
2023/01/03 11:13:25;;;;;;;;;;;;;;;8.59;67.67;99273.47;4991602;28;19926;-62
2023/01/03 11:15:53;;;;;;;;;;;;;;;8.60;66.47;99280.50;4984142;28;19932;-62
2023/01/03 11:18:22;;;;;;;;;;;;;;;8.58;66.73;99280.78;4992436;28;20383;-63
2023/01/03 11:20:50;;;;;;;;;;;;;;;8.57;66.95;99283.72;4983321;28;19961;-63
2023/01/03 11:23:21;;;;;;;;;;;;;;;8.57;66.93;99283.72;4987060;28;20047;-62
2023/01/03 11:25:53;;;;;;;;;;;;;;;8.63;67.03;99277.28;4989019;28;20421;-63
2023/01/03 11:28:36;;;;;;;;;;;;;;;8.66;66.48;99274.03;4992184;28;20301;-62
2023/01/03 11:31:04;;;;;;;;;;;;;;;8.58;66.89;99269.94;4982127;28;20714;-62
2023/01/03 11:33:39;;;;;;;;;;;;;;;8.62;66.63;99272.91;4981663;28;19934;-62
2023/01/03 11:36:11;;;;;;;;;;;;;;;8.66;66.72;99264.00;4992295;28;19957;-62
2023/01/03 11:38:45;;;;;;;;;;;;;;;8.77;66.67;99264.84;4982328;28;19938;-62
2023/01/03 11:41:38;;;;;;;;;;;;;;;8.83;66.04;99266.50;4992229;28;20394;-62
2023/01/03 11:44:21;;;;;;;;;;;;;;;8.89;65.81;99262.72;5004434;28;19932;-62
2023/01/03 11:47:15;;;;;;;;;;;;;;;9.05;65.44;99257.31;4983233;28;19926;-62
2023/01/03 11:49:46;;;;;;;;;;;;;;;9.07;65.00;99266.03;4996480;28;19948;-62
2023/01/03 11:52:18;;;;;;;;;;;;;;;9.07;65.43;99258.69;4991955;28;19932;-62
2023/01/03 11:54:51;;;;;;;;;;;;;;;9.18;65.03;99260.34;4989643;28;19926;-63
2023/01/03 11:57:25;;;;;;;;;;;;;;;9.23;64.74;99261.44;4989897;28;19973;-62
2023/01/03 12:00:00;;;;;;;;;;;;;;;9.28;64.04;99254.13;4986111;28;19926;-63
2023/01/03 12:02:43;;;;;;;;;;;;;;;9.31;64.23;99266.31;4989679;28;19925;-63
2023/01/03 12:05:18;;;;;;;;;;;;;;;9.45;63.50;99264.72;4988298;28;19949;-63
2023/01/03 12:07:50;;;;;;;;;;;;;;;9.28;64.24;99267.69;4989880;28;19926;-63
2023/01/03 12:10:21;;;;;;;;;;;;;;;9.19;64.50;99261.16;4991457;28;19933;-63
2023/01/03 12:13:07;;;;;;;;;;;;;;;9.11;64.88;99264.41;4987226;28;19933;-62
2023/01/03 12:18:33;;;;;;;;;;;;;;;8.87;65.76;99273.00;4989181;28;19933;-64
2023/01/03 12:21:02;;;;;;;;;;;;;;;8.63;65.75;99271.88;4979826;28;20306;-62
2023/01/03 12:23:33;;;;;;;;;;;;;;;8.62;66.54;99262.88;4989981;28;19925;-62
2023/01/03 12:26:02;;;;;;;;;;;;;;;8.70;66.28;99266.19;4989382;28;19972;-62
2023/01/03 12:28:34;;;;;;;;;;;;;;;8.67;66.47;99270.22;4991994;28;19930;-62
2023/01/03 12:31:04;;;;;;;;;;;;;;;8.77;65.89;99269.47;4981721;28;19933;-62
2023/01/03 12:33:33;;;;;;;;;;;;;;;8.77;66.14;99272.97;4987110;28;19926;-62
2023/01/03 12:36:03;;;;;;;;;;;;;;;8.87;65.74;99267.59;4986711;28;19930;-62
2023/01/03 12:38:34;;;;;;;;;;;;;;;9.04;65.07;99263.84;4994660;28;19925;-62
2023/01/03 12:41:27;;;;;;;;;;;;;;;9.18;64.67;99264.94;4990784;28;19936;-63
2023/01/03 12:43:57;;;;;;;;;;;;;;;9.39;63.69;99254.94;4992343;28;19933;-63
2023/01/03 12:46:29;;;;;;;;;;;;;;;9.62;63.65;99250.88;4989103;28;19926;-62
2023/01/03 12:48:58;;;;;;;;;;;;;;;9.70;62.61;99250.34;4992351;28;20403;-62
2023/01/03 12:51:27;;;;;;;;;;;;;;;9.74;62.68;99243.25;4992186;28;19980;-62
2023/01/03 12:54:01;;;;;;;;;;;;;;;9.69;63.24;99237.81;4994219;28;19965;-63
2023/01/03 12:56:40;;;;;;;;;;;;;;;9.78;62.37;99233.47;4995570;28;19954;-62
2023/01/03 12:59:10;;;;;;;;;;;;;;;9.83;61.94;99222.63;4992552;28;19926;-62
2023/01/03 13:01:42;;;;;;;;;;;;;;;9.93;62.02;99228.03;4986997;28;19953;-62
2023/01/03 13:04:12;;;;;;;;;;;;;;;10.01;61.63;99228.56;4994748;28;19926;-62
2023/01/03 13:06:46;;;;;;;;;;;;;;;9.96;61.63;99222.06;4988146;28;19934;-63
2023/01/03 13:09:16;;;;;;;;;;;;;;;9.91;61.82;99224.78;5007713;28;19941;-62
2023/01/03 13:11:48;;;;;;;;;;;;;;;9.92;61.56;99228.31;5007180;28;20748;-63
2023/01/03 13:14:17;;;;;;;;;;;;;;;9.87;61.55;99222.91;4994983;28;19980;-62
2023/01/03 13:16:48;;;;;;;;;;;;;;;9.91;62.03;99219.38;4986258;28;19945;-62
2023/01/03 13:19:34;;;;;;;;;;;;;;;9.81;61.88;99227.53;4994431;28;20388;-63
2023/01/03 13:22:03;;;;;;;;;;;;;;;9.85;61.95;99219.63;4981998;28;19965;-63
2023/01/03 13:24:41;;;;;;;;;;;;;;;9.64;61.99;99205.28;4994190;28;20016;-63
2023/01/03 13:27:22;;;;;;;;;;;;;;;9.71;62.34;99219.38;4991213;28;20371;-63
2023/01/03 13:29:57;;;;;;;;;;;;;;;9.80;62.18;99216.91;4988431;28;19926;-63
2023/01/03 13:32:27;;;;;;;;;;;;;;;9.88;61.74;99209.03;4981074;28;19926;-63
2023/01/03 13:35:14;;;;;;;;;;;;;;;9.80;61.62;99212.31;4994464;28;19926;-63
2023/01/03 13:37:44;;;;;;;;;;;;;;;9.77;61.75;99212.88;4991601;28;19930;-63
2023/01/03 13:40:21;;;;;;;;;;;;;;;9.71;61.42;99220.19;4993056;28;19933;-63
2023/01/03 13:42:49;;;;;;;;;;;;;;;9.73;60.22;99211.78;4992059;28;19926;-63
2023/01/03 13:45:35;;;;;;;;;;;;;;;9.78;59.50;99219.91;4987657;28;20402;-64
2023/01/03 13:48:10;;;;;;;;;;;;;;;9.59;60.21;99216.97;4990866;28;19933;-63
2023/01/03 13:50:39;;;;;;;;;;;;;;;9.65;60.22;99212.34;4991854;28;19956;-63
2023/01/03 13:53:32;;;;;;;;;;;;;;;9.58;59.95;99209.88;4992058;28;19932;-63
2023/01/03 13:56:01;;;;;;;;;;;;;;;9.42;60.07;99217.22;4991937;28;19925;-63
2023/01/03 13:58:55;;;;;;;;;;;;;;;9.49;60.04;99214.25;4986709;28;20486;-63
2023/01/03 14:01:26;;;;;;;;;;;;;;;9.44;60.09;99214.25;4979255;28;19980;-63
2023/01/03 14:04:00;;;;;;;;;;;;;;;9.36;59.97;99218.31;4989536;28;19933;-63
2023/01/03 14:06:36;;;;;;;;;;;;;;;9.33;59.41;99218.06;4992461;28;19941;-64
2023/01/03 14:09:22;;;;;;;;;;;;;;;9.24;59.00;99211.53;4999976;28;19930;-63
2023/01/03 14:12:20;;;;;;;;;;;;;;;9.14;60.17;99220.47;4985325;28;20032;-64
2023/01/03 14:17:54;;;;;;;;;;;;;;;9.21;60.24;99221.00;4986544;28;20003;-64
2023/01/03 14:20:24;;;;;;;;;;;;;;;9.08;60.35;99218.84;5007482;28;19933;-63
2023/01/03 14:22:53;;;;;;;;;;;;;;;8.93;60.47;99223.16;4990197;28;20010;-63
2023/01/03 14:25:33;;;;;;;;;;;;;;;8.89;60.76;99222.09;4993298;28;19926;-63
2023/01/03 14:28:02;;;;;;;;;;;;;;;8.75;61.90;99223.66;4996510;28;19925;-63
2023/01/03 14:30:32;;;;;;;;;;;;;;;8.63;62.42;99221.19;4986954;28;20403;-63
2023/01/03 14:33:00;;;;;;;;;;;;;;;8.58;62.96;99221.19;4992059;28;19979;-63